Time;durP1;ratioP1;P1;durP2;ratioP2;P2;SDS_P1;SDS_P2;PMS_P1;PMS_P2;Temp;Humidity;BMP_temperature;BMP_pressure;BME280_temperature;BME280_humidity;BME280_pressure;Samples;Min_cycle;Max_cycle;Signal;HPM_P1;HPM_P2
2021/07/13 00:00:52;;;;;;;3.05;2.58;;;16.60;1.00;;;;;;5014234;28;20037;-88
2021/07/13 00:03:18;;;;;;;2.72;2.38;;;16.60;1.00;;;;;;5014126;28;20064;-88
2021/07/13 00:05:43;;;;;;;2.92;2.60;;;16.60;1.00;;;;;;5014367;28;20125;-88
2021/07/13 00:08:09;;;;;;;4.13;2.28;;;16.60;1.00;;;;;;5013241;28;20026;-88
2021/07/13 00:10:38;;;;;;;2.83;2.50;;;16.60;1.00;;;;;;5014725;28;20116;-88
2021/07/13 00:13:04;;;;;;;2.47;2.17;;;16.70;1.00;;;;;;5014121;28;20018;-88
2021/07/13 00:15:39;;;;;;;3.45;2.38;;;16.60;1.00;;;;;;5014181;28;20033;-88
2021/07/13 00:18:07;;;;;;;3.05;2.63;;;16.60;1.00;;;;;;5014180;28;20033;-88
2021/07/13 00:20:33;;;;;;;4.95;2.53;;;16.70;1.00;;;;;;5014038;28;20053;-88
2021/07/13 00:22:59;;;;;;;4.28;2.63;;;16.80;1.00;;;;;;5014155;28;20084;-89
2021/07/13 00:25:27;;;;;;;3.00;2.50;;;16.80;1.00;;;;;;5012930;28;20456;-88
2021/07/13 00:27:53;;;;;;;3.40;3.03;;;16.80;1.00;;;;;;5012330;28;20516;-88
2021/07/13 00:30:19;;;;;;;4.10;3.00;;;16.70;1.00;;;;;;5014077;28;20034;-88
2021/07/13 00:32:46;;;;;;;4.97;2.58;;;16.60;1.00;;;;;;5013381;28;20053;-88
2021/07/13 00:35:11;;;;;;;3.75;2.63;;;16.60;1.00;;;;;;5014161;28;20125;-88
2021/07/13 00:37:37;;;;;;;2.70;2.50;;;16.70;1.00;;;;;;5012184;28;20058;-88
2021/07/13 00:40:07;;;;;;;3.15;2.35;;;16.60;1.00;;;;;;5013007;28;20097;-88
2021/07/13 00:42:32;;;;;;;4.30;2.70;;;16.50;1.00;;;;;;5012944;28;20105;-88
2021/07/13 00:44:58;;;;;;;2.40;2.20;;;16.50;1.00;;;;;;5013748;28;20129;-88
2021/07/13 00:47:27;;;;;;;4.85;2.50;;;16.50;1.00;;;;;;5012501;28;20036;-88
2021/07/13 00:49:52;;;;;;;3.55;2.63;;;16.60;1.00;;;;;;5014035;28;20505;-88
2021/07/13 00:52:19;;;;;;;2.55;2.30;;;16.50;1.00;;;;;;5013058;28;20034;-88
2021/07/13 00:54:47;;;;;;;3.20;2.25;;;16.20;1.00;;;;;;5013528;28;20034;-88
2021/07/13 00:57:14;;;;;;;2.60;2.40;;;16.00;1.00;;;;;;5013162;28;20041;-88
2021/07/13 00:59:41;;;;;;;7.00;3.25;;;15.80;1.00;;;;;;5013238;28;20083;-88
2021/07/13 01:02:09;;;;;;;4.82;2.83;;;15.90;1.00;;;;;;5014002;28;20033;-88
2021/07/13 01:04:37;;;;;;;5.82;2.67;;;16.10;1.00;;;;;;5013387;28;20038;-88
2021/07/13 01:07:47;;;;;;;3.47;2.60;;;16.10;1.00;;;;;;5012560;28;20029;-88
2021/07/13 01:10:21;;;;;;;3.53;2.72;;;16.20;1.00;;;;;;5012801;28;20402;-87
2021/07/13 01:12:55;;;;;;;3.50;2.60;;;16.30;1.00;;;;;;5012930;28;20038;-88
2021/07/13 01:15:22;;;;;;;5.57;2.85;;;16.30;1.00;;;;;;5012803;28;20030;-87
2021/07/13 01:18:25;;;;;;;5.47;3.08;;;16.30;1.00;;;;;;5012888;28;20088;-87
2021/07/13 01:21:21;;;;;;;3.53;2.83;;;16.40;1.00;;;;;;4978906;28;20035;-88
2021/07/13 01:24:25;;;;;;;3.38;2.45;;;16.40;1.00;;;;;;4990904;28;20053;-88
2021/07/13 01:27:12;;;;;;;3.45;2.40;;;16.40;1.00;;;;;;4954975;28;20034;-89
2021/07/13 01:29:39;;;;;;;2.53;2.33;;;16.40;1.00;;;;;;4940069;28;20152;-88
2021/07/13 01:32:07;;;;;;;3.70;2.40;;;16.40;1.00;;;;;;4954702;28;20118;-88
2021/07/13 01:34:38;;;;;;;3.42;2.55;;;16.50;1.00;;;;;;4959159;28;20087;-88
2021/07/13 01:37:08;;;;;;;3.20;2.35;;;16.50;1.00;;;;;;4955513;28;20054;-88
2021/07/13 01:39:35;;;;;;;3.35;2.45;;;16.60;1.00;;;;;;4956301;28;20031;-88
2021/07/13 01:42:08;;;;;;;11.30;3.28;;;16.50;1.00;;;;;;4956349;28;20035;-89
2021/07/13 01:44:35;;;;;;;2.65;2.25;;;16.50;1.00;;;;;;4952487;28;20554;-88
2021/07/13 01:47:01;;;;;;;2.95;2.40;;;16.50;1.00;;;;;;4955554;28;20406;-90
2021/07/13 01:49:28;;;;;;;2.53;2.33;;;16.60;1.00;;;;;;4956146;28;20043;-89
2021/07/13 01:51:56;;;;;;;4.15;2.78;;;16.60;1.00;;;;;;4955680;28;20039;-89
2021/07/13 01:54:28;;;;;;;2.97;2.30;;;16.60;1.00;;;;;;4955970;28;20479;-88
2021/07/13 01:56:58;;;;;;;2.58;2.38;;;16.60;1.00;;;;;;4968891;28;20411;-88
2021/07/13 01:59:25;;;;;;;2.30;2.10;;;16.60;1.00;;;;;;4971367;28;20129;-89
2021/07/13 02:01:55;;;;;;;4.13;2.22;;;16.70;1.00;;;;;;4975995;28;20030;-89
2021/07/13 02:04:26;;;;;;;3.42;2.35;;;16.70;1.00;;;;;;5000407;28;20401;-89
2021/07/13 02:06:52;;;;;;;2.53;2.28;;;16.70;1.00;;;;;;5012263;28;20037;-89
2021/07/13 02:09:18;;;;;;;2.53;2.33;;;16.60;1.00;;;;;;5011965;28;20528;-89
2021/07/13 02:11:45;;;;;;;2.67;2.47;;;16.60;1.00;;;;;;5012011;28;20030;-88
2021/07/13 02:14:12;;;;;;;3.72;2.30;;;16.40;1.00;;;;;;5012431;28;20053;-89
2021/07/13 02:16:38;;;;;;;2.47;2.28;;;16.60;1.00;;;;;;5010257;28;20065;-89
2021/07/13 02:19:07;;;;;;;3.03;2.22;;;16.50;1.00;;;;;;5010845;28;20545;-88
2021/07/13 02:21:33;;;;;;;3.00;2.42;;;16.30;1.00;;;;;;5011864;28;20026;-89
2021/07/13 02:23:59;;;;;;;3.17;2.42;;;16.30;1.00;;;;;;5011762;28;20076;-88
2021/07/13 02:26:34;;;;;;;2.72;2.53;;;16.20;1.00;;;;;;4995514;28;20026;-89
2021/07/13 02:29:08;;;;;;;3.85;2.47;;;16.20;1.00;;;;;;5008561;28;20033;-88
2021/07/13 02:31:38;;;;;;;2.58;2.20;;;16.10;1.00;;;;;;5009928;28;20095;-89
2021/07/13 02:34:09;;;;;;;2.25;2.05;;;16.20;1.00;;;;;;5010055;28;20022;-88
2021/07/13 02:36:41;;;;;;;2.50;2.30;;;16.20;1.00;;;;;;5011326;28;20054;-89
2021/07/13 02:39:08;;;;;;;3.20;2.38;;;16.30;1.00;;;;;;5011876;28;20030;-88
2021/07/13 02:41:36;;;;;;;2.70;2.22;;;16.40;1.00;;;;;;5011564;28;20034;-89
2021/07/13 02:44:03;;;;;;;3.85;2.15;;;16.40;1.00;;;;;;5011714;28;20021;-89
2021/07/13 02:46:30;;;;;;;3.38;2.20;;;16.40;1.00;;;;;;5010684;28;20030;-88
2021/07/13 02:48:57;;;;;;;2.40;2.20;;;16.40;1.00;;;;;;5011057;28;20057;-88
2021/07/13 02:51:26;;;;;;;2.33;2.13;;;16.30;1.00;;;;;;5011766;28;20033;-88
2021/07/13 02:53:54;;;;;;;2.15;2.05;;;16.30;1.00;;;;;;5011386;28;20489;-87
2021/07/13 02:56:24;;;;;;;2.60;2.20;;;16.50;1.00;;;;;;5011659;28;20060;-88
2021/07/13 02:58:51;;;;;;;4.22;2.00;;;16.50;1.00;;;;;;5010508;28;20105;-88
2021/07/13 03:01:17;;;;;;;2.80;1.85;;;16.50;1.00;;;;;;5011543;28;20117;-88
2021/07/13 03:03:43;;;;;;;3.47;2.35;;;16.60;1.00;;;;;;5012218;28;20110;-88
2021/07/13 03:06:14;;;;;;;3.40;2.22;;;16.60;1.00;;;;;;5016570;28;20452;-88
2021/07/13 03:08:39;;;;;;;3.47;2.60;;;16.60;1.00;;;;;;5017849;28;20021;-89
2021/07/13 03:11:06;;;;;;;3.97;2.20;;;16.60;1.00;;;;;;5016730;28;20143;-89
2021/07/13 03:13:32;;;;;;;1.85;1.75;;;16.60;1.00;;;;;;5017210;28;20033;-88
2021/07/13 03:15:58;;;;;;;2.72;2.10;;;16.60;1.00;;;;;;5017511;28;20045;-88
2021/07/13 03:18:24;;;;;;;2.78;2.50;;;16.60;1.00;;;;;;5017286;28;20101;-88
2021/07/13 03:20:52;;;;;;;2.40;2.20;;;16.60;1.00;;;;;;5017834;28;20050;-88
2021/07/13 03:23:21;;;;;;;4.03;2.10;;;16.60;1.00;;;;;;5017991;28;20112;-88
2021/07/13 03:25:49;;;;;;;3.15;2.22;;;16.60;1.00;;;;;;5016782;28;20037;-88
2021/07/13 03:28:16;;;;;;;3.25;2.03;;;16.60;1.00;;;;;;5016303;28;20030;-87
2021/07/13 03:30:43;;;;;;;2.60;1.95;;;16.60;1.00;;;;;;5016457;28;20084;-88
2021/07/13 03:33:13;;;;;;;3.53;2.30;;;16.60;1.00;;;;;;5017196;28;20041;-89
2021/07/13 03:35:40;;;;;;;2.78;2.10;;;16.60;1.00;;;;;;5017192;28;20040;-88
2021/07/13 03:38:06;;;;;;;1.75;1.65;;;16.60;1.00;;;;;;5018429;28;20076;-88
2021/07/13 03:40:32;;;;;;;2.63;1.80;;;16.50;1.00;;;;;;5017859;28;20116;-88
2021/07/13 03:42:58;;;;;;;2.45;2.00;;;16.50;1.00;;;;;;5016227;28;20030;-88
2021/07/13 03:45:25;;;;;;;2.88;1.80;;;16.60;1.00;;;;;;5017250;28;20026;-88
2021/07/13 03:47:56;;;;;;;1.63;1.52;;;16.60;1.00;;;;;;5017083;28;20022;-88
2021/07/13 03:50:24;;;;;;;2.75;2.15;;;16.50;1.00;;;;;;5016617;28;20029;-88
2021/07/13 03:52:50;;;;;;;2.83;1.90;;;16.50;1.00;;;;;;5016619;28;20390;-88
2021/07/13 03:55:16;;;;;;;1.90;1.52;;;16.60;1.00;;;;;;5015907;28;20069;-88
2021/07/13 03:57:42;;;;;;;1.73;1.63;;;16.60;1.00;;;;;;5017615;28;20045;-88
2021/07/13 04:00:16;;;;;;;2.47;1.88;;;16.70;1.00;;;;;;5016959;28;20108;-88
2021/07/13 04:02:42;;;;;;;3.47;1.90;;;16.60;1.00;;;;;;5017300;28;20018;-88
2021/07/13 04:05:10;;;;;;;4.22;2.10;;;16.60;1.00;;;;;;5017195;28;20040;-88
2021/07/13 04:07:36;;;;;;;2.42;1.77;;;16.60;1.00;;;;;;5017742;28;20026;-88
2021/07/13 04:10:11;;;;;;;2.50;1.98;;;16.60;1.00;;;;;;5017980;28;20057;-88
2021/07/13 04:12:36;;;;;;;2.13;1.92;;;16.60;1.00;;;;;;5015836;28;20030;-88
2021/07/13 04:15:04;;;;;;;2.00;1.83;;;16.60;1.00;;;;;;5015596;28;20029;-89
2021/07/13 04:17:29;;;;;;;4.43;2.05;;;16.60;1.00;;;;;;5014134;28;20029;-88
2021/07/13 04:19:55;;;;;;;2.78;1.90;;;16.60;1.00;;;;;;5015078;28;20113;-88
2021/07/13 04:22:20;;;;;;;2.13;1.92;;;16.60;1.00;;;;;;5013881;28;20030;-88
2021/07/13 04:24:46;;;;;;;2.00;1.90;;;16.60;1.00;;;;;;5013881;28;20401;-89
2021/07/13 04:27:12;;;;;;;3.22;1.85;;;16.60;1.00;;;;;;5012847;28;20356;-88
2021/07/13 04:29:38;;;;;;;2.03;1.60;;;16.60;1.00;;;;;;5013508;28;20116;-89
2021/07/13 04:32:04;;;;;;;2.08;1.80;;;16.60;1.00;;;;;;5013947;28;20026;-88
2021/07/13 04:34:31;;;;;;;1.52;1.42;;;16.70;1.00;;;;;;5014715;28;20041;-88
2021/07/13 04:36:57;;;;;;;1.42;1.33;;;16.70;1.00;;;;;;5013058;28;20157;-89
2021/07/13 04:39:22;;;;;;;2.42;1.52;;;16.60;1.00;;;;;;5013459;28;20131;-88
2021/07/13 04:41:48;;;;;;;3.10;1.50;;;16.70;1.00;;;;;;5013970;28;20494;-89
2021/07/13 04:44:14;;;;;;;3.15;1.40;;;16.60;1.00;;;;;;5013530;28;20029;-89
2021/07/13 04:46:40;;;;;;;6.10;2.00;;;16.70;1.00;;;;;;5014018;28;20057;-89
2021/07/13 04:49:05;;;;;;;2.65;1.90;;;16.60;1.00;;;;;;5013767;28;20044;-89
2021/07/13 04:51:31;;;;;;;3.80;1.48;;;16.60;1.00;;;;;;5013297;28;20026;-89
2021/07/13 04:53:56;;;;;;;2.47;1.50;;;16.70;1.00;;;;;;5013506;28;20527;-89
2021/07/13 04:56:22;;;;;;;2.75;1.50;;;16.60;1.00;;;;;;5011969;28;20812;-89
2021/07/13 04:58:48;;;;;;;1.80;1.42;;;16.70;1.00;;;;;;5013443;28;20029;-88
2021/07/13 05:01:13;;;;;;;1.80;1.60;;;16.70;1.00;;;;;;5013592;28;20526;-88
2021/07/13 05:03:39;;;;;;;3.30;1.60;;;16.70;1.00;;;;;;5012980;28;20025;-88
2021/07/13 05:06:05;;;;;;;1.20;1.10;;;16.70;1.00;;;;;;5013081;28;20405;-88
2021/07/13 05:08:31;;;;;;;1.77;1.40;;;16.80;1.00;;;;;;5013111;28;20084;-89
2021/07/13 05:10:56;;;;;;;3.28;1.30;;;16.70;1.00;;;;;;5013868;28;20038;-89
2021/07/13 05:13:22;;;;;;;1.48;1.27;;;16.70;1.00;;;;;;5011432;28;20033;-88
2021/07/13 05:15:48;;;;;;;1.20;1.10;;;16.70;1.00;;;;;;5011485;28;20441;-88
2021/07/13 05:18:15;;;;;;;2.53;1.42;;;16.80;1.00;;;;;;5011610;28;20088;-89
2021/07/13 05:20:47;;;;;;;2.33;1.58;;;16.80;1.00;;;;;;5012036;28;20041;-88
2021/07/13 05:23:13;;;;;;;1.70;1.48;;;16.90;1.00;;;;;;5013361;28;20504;-88
2021/07/13 05:25:39;;;;;;;1.73;1.52;;;17.30;1.00;;;;;;5011938;28;20521;-88
2021/07/13 05:28:10;;;;;;;5.78;1.70;;;16.70;1.00;;;;;;5011792;28;20026;-88
2021/07/13 05:30:39;;;;;;;1.98;1.60;;;16.80;1.00;;;;;;5012667;28;20096;-88
2021/07/13 05:33:05;;;;;;;1.65;1.55;;;16.90;1.00;;;;;;5012856;28;20021;-88
2021/07/13 05:35:30;;;;;;;3.63;1.70;;;16.90;1.00;;;;;;5012277;28;20045;-88
2021/07/13 05:37:56;;;;;;;2.22;1.60;;;16.90;1.00;;;;;;5013300;28;20026;-88
2021/07/13 05:40:21;;;;;;;1.80;1.58;;;16.90;1.00;;;;;;5011207;28;20105;-88
2021/07/13 05:42:47;;;;;;;1.80;1.70;;;17.00;1.00;;;;;;5012033;28;20034;-92
2021/07/13 05:45:13;;;;;;;4.55;2.15;;;16.80;1.00;;;;;;5011483;28;20081;-88
2021/07/13 05:47:39;;;;;;;2.70;1.85;;;16.80;1.00;;;;;;5012449;28;20026;-89
2021/07/13 05:50:06;;;;;;;2.17;1.80;;;16.90;1.00;;;;;;5013349;28;20176;-88
2021/07/13 05:52:32;;;;;;;2.55;1.50;;;16.80;1.00;;;;;;5012326;28;20060;-89
2021/07/13 05:54:58;;;;;;;2.03;1.80;;;16.70;1.00;;;;;;5012792;28;20447;-91
2021/07/13 05:57:23;;;;;;;1.92;1.75;;;16.70;1.00;;;;;;5011273;28;20030;-91
2021/07/13 05:59:49;;;;;;;2.47;2.00;;;16.70;1.00;;;;;;5011751;28;20056;-90
2021/07/13 06:02:14;;;;;;;2.55;2.05;;;16.80;1.00;;;;;;5013210;28;20367;-91
2021/07/13 06:04:40;;;;;;;4.18;2.40;;;16.80;1.00;;;;;;5012733;28;20037;-91
2021/07/13 06:07:06;;;;;;;4.00;2.80;;;16.90;1.00;;;;;;5013091;28;20026;-90
2021/07/13 06:09:31;;;;;;;3.15;2.85;;;16.90;1.00;;;;;;5012982;28;20029;-89
2021/07/13 06:11:58;;;;;;;3.95;3.40;;;16.90;1.00;;;;;;5012261;28;20033;-91
2021/07/13 06:14:23;;;;;;;3.40;3.10;;;17.00;1.00;;;;;;5012821;28;20024;-91
2021/07/13 06:16:50;;;;;;;3.90;3.20;;;17.10;1.00;;;;;;5013589;28;20038;-90
2021/07/13 06:19:15;;;;;;;4.88;3.35;;;17.20;1.00;;;;;;5011702;28;20025;-91
2021/07/13 06:21:41;;;;;;;4.72;3.22;;;17.20;1.00;;;;;;5011564;28;20599;-89
2021/07/13 06:24:07;;;;;;;3.67;2.85;;;17.20;1.00;;;;;;5012872;28;20017;-91
2021/07/13 06:26:33;;;;;;;4.38;2.92;;;17.30;1.00;;;;;;5011909;28;20041;-94
2021/07/13 06:29:01;;;;;;;4.05;3.55;;;17.70;1.00;;;;;;5011499;28;20112;-89
2021/07/13 06:31:27;;;;;;;3.63;3.22;;;17.30;1.00;;;;;;5010508;28;20026;-88
2021/07/13 06:33:53;;;;;;;3.60;3.30;;;17.30;1.00;;;;;;5011080;28;20029;-90
2021/07/13 06:36:18;;;;;;;4.97;3.42;;;17.40;1.00;;;;;;5010925;28;20097;-85
2021/07/13 06:38:44;;;;;;;4.70;3.53;;;17.40;1.00;;;;;;5012286;28;20491;-91
2021/07/13 06:41:09;;;;;;;4.13;3.40;;;17.40;1.00;;;;;;5011949;28;20037;-89
2021/07/13 06:43:35;;;;;;;3.85;3.30;;;17.40;1.00;;;;;;5012785;28;20364;-93
2021/07/13 06:46:01;;;;;;;3.85;3.40;;;17.30;1.00;;;;;;5012094;28;20402;-92
2021/07/13 06:48:27;;;;;;;4.25;3.85;;;17.20;1.00;;;;;;5012883;28;20022;-85
2021/07/13 06:50:53;;;;;;;3.63;3.28;;;17.20;1.00;;;;;;4999671;28;20044;-85
2021/07/13 06:53:19;;;;;;;4.13;3.70;;;17.20;1.00;;;;;;5025988;28;20391;-85
2021/07/13 06:55:45;;;;;;;4.10;3.58;;;17.30;1.00;;;;;;5009484;28;20041;-87
2021/07/13 06:58:11;;;;;;;4.38;3.10;;;17.40;1.00;;;;;;5013964;28;20034;-89
2021/07/13 07:00:36;;;;;;;5.72;3.58;;;17.30;1.00;;;;;;5015209;28;20449;-87
2021/07/13 07:03:02;;;;;;;4.40;3.55;;;17.50;1.00;;;;;;5016129;28;20030;-88
2021/07/13 07:05:28;;;;;;;8.23;4.15;;;17.60;1.00;;;;;;5011707;28;20105;-88
2021/07/13 07:07:54;;;;;;;4.93;3.78;;;17.80;1.00;;;;;;5014941;28;20030;-89
2021/07/13 07:10:21;;;;;;;4.93;3.55;;;17.80;1.00;;;;;;5023608;28;20068;-90
2021/07/13 07:12:48;;;;;;;4.72;3.38;;;17.80;1.00;;;;;;5020037;28;20057;-90
2021/07/13 07:15:14;;;;;;;4.75;2.80;;;17.70;1.00;;;;;;5015328;28;20029;-87
2021/07/13 07:17:43;;;;;;;4.80;3.50;;;17.50;1.00;;;;;;5005443;28;20068;-89
2021/07/13 07:20:10;;;;;;;3.97;2.92;;;17.40;1.00;;;;;;5009286;28;20025;-88
2021/07/13 07:22:37;;;;;;;3.33;2.92;;;17.60;1.00;;;;;;5010018;28;20454;-89
2021/07/13 07:25:03;;;;;;;6.85;3.08;;;17.40;1.00;;;;;;5009598;28;20125;-91
2021/07/13 07:27:28;;;;;;;4.07;3.03;;;17.40;1.00;;;;;;5009906;28;20026;-90
2021/07/13 07:29:54;;;;;;;3.22;2.60;;;17.40;1.00;;;;;;5009421;28;20037;-86
2021/07/13 07:32:20;;;;;;;3.30;3.00;;;17.30;1.00;;;;;;5009918;28;20045;-88
2021/07/13 07:34:45;;;;;;;4.68;3.28;;;17.40;1.00;;;;;;5025677;28;20038;-90
2021/07/13 07:37:11;;;;;;;3.25;2.95;;;17.50;1.00;;;;;;5009949;28;20525;-91
2021/07/13 07:39:37;;;;;;;4.35;3.08;;;17.70;1.00;;;;;;5008847;28;20124;-92
2021/07/13 07:42:04;;;;;;;4.35;3.25;;;17.90;1.00;;;;;;5009534;28;20188;-95
2021/07/13 07:44:29;;;;;;;4.07;2.83;;;17.90;1.00;;;;;;5011068;28;20021;-93
2021/07/13 07:46:55;;;;;;;6.45;3.50;;;18.00;1.00;;;;;;5009233;28;20037;-95
2021/07/13 07:49:21;;;;;;;3.95;2.95;;;18.50;1.00;;;;;;5009424;28;20116;-93
2021/07/13 07:51:46;;;;;;;3.25;2.90;;;18.60;1.00;;;;;;5011812;28;20454;-94
2021/07/13 07:54:12;;;;;;;4.47;3.40;;;18.70;1.00;;;;;;5012639;28;20022;-93
2021/07/13 07:56:38;;;;;;;3.95;3.20;;;18.30;1.00;;;;;;5015783;28;20096;-94
2021/07/13 07:59:04;;;;;;;6.43;3.20;;;18.40;1.00;;;;;;5015527;28;20486;-92
2021/07/13 08:01:30;;;;;;;3.65;2.88;;;18.60;1.00;;;;;;5017931;28;20122;-95
2021/07/13 08:03:56;;;;;;;4.97;3.60;;;18.70;1.00;;;;;;5014693;28;20545;-93
2021/07/13 08:06:22;;;;;;;4.60;3.00;;;18.70;1.00;;;;;;5016483;28;20097;-96
2021/07/13 08:08:48;;;;;;;4.93;2.80;;;19.10;1.00;;;;;;5014128;28;20025;-94
2021/07/13 08:11:13;;;;;;;3.30;3.00;;;18.80;1.00;;;;;;5014888;28;20030;-95
2021/07/13 08:13:40;;;;;;;3.03;2.80;;;19.00;1.00;;;;;;5015049;28;20120;-96
2021/07/13 08:16:06;;;;;;;3.03;2.72;;;19.30;1.00;;;;;;5015292;28;20124;-96
2021/07/13 08:18:31;;;;;;;4.38;2.90;;;20.10;1.00;;;;;;5016898;28;20089;-94
2021/07/13 08:20:59;;;;;;;4.80;2.85;;;20.50;99.90;;;;;;5013963;28;20528;-93
2021/07/13 08:23:24;;;;;;;2.97;2.60;;;20.80;99.90;;;;;;5013354;28;20032;-91
2021/07/13 08:25:50;;;;;;;3.42;2.90;;;21.00;99.90;;;;;;5014210;28;20033;-91
2021/07/13 08:28:16;;;;;;;2.60;2.40;;;21.00;99.90;;;;;;5011392;28;20026;-90
2021/07/13 08:30:42;;;;;;;5.28;2.95;;;20.70;99.90;;;;;;5012449;28;20391;-91
2021/07/13 08:33:07;;;;;;;3.97;2.80;;;20.70;99.90;;;;;;5014792;28;20025;-90
2021/07/13 08:35:33;;;;;;;3.92;2.60;;;20.60;99.90;;;;;;5008135;28;20041;-90
2021/07/13 08:37:58;;;;;;;4.35;2.75;;;21.10;99.90;;;;;;5012890;28;20030;-89
2021/07/13 08:40:25;;;;;;;5.18;2.55;;;21.40;99.90;;;;;;5009537;28;20030;-87
2021/07/13 08:42:51;;;;;;;3.03;2.70;;;21.30;99.90;;;;;;5011147;28;20076;-87
2021/07/13 08:45:19;;;;;;;4.25;2.75;;;21.10;99.90;;;;;;5010174;28;20034;-89
2021/07/13 08:47:48;;;;;;;11.63;3.22;;;21.10;99.90;;;;;;5007219;28;20030;-87
2021/07/13 08:50:15;;;;;;;7.60;2.70;;;21.10;99.90;;;;;;5014251;28;20026;-89
2021/07/13 08:52:41;;;;;;;3.78;2.70;;;21.30;99.90;;;;;;5014186;28;20061;-90
2021/07/13 08:55:09;;;;;;;9.20;3.30;;;21.70;99.90;;;;;;5016838;28;20467;-90
2021/07/13 08:57:41;;;;;;;6.00;3.10;;;21.80;99.90;;;;;;5016672;28;20371;-91
2021/07/13 09:00:10;;;;;;;5.75;2.97;;;21.40;99.90;;;;;;5012437;28;20034;-93
2021/07/13 09:02:35;;;;;;;3.83;2.92;;;20.80;99.90;;;;;;5028105;28;20022;-89
2021/07/13 09:05:02;;;;;;;5.63;2.80;;;20.30;99.90;;;;;;5010977;28;20034;-90
2021/07/13 09:07:30;;;;;;;3.20;2.90;;;20.30;99.90;;;;;;5016778;28;20034;-89
2021/07/13 09:10:06;;;;;;;4.63;3.15;;;20.50;99.90;;;;;;5021422;28;20034;-89
2021/07/13 09:12:32;;;;;;;3.40;3.10;;;20.50;99.90;;;;;;5022219;28;20022;-89
2021/07/13 09:15:00;;;;;;;4.88;3.45;;;20.00;99.90;;;;;;5010847;28;20040;-86
2021/07/13 09:17:43;;;;;;;6.30;2.95;;;19.90;99.90;;;;;;5010813;28;20030;-85
2021/07/13 09:20:10;;;;;;;4.35;3.25;;;19.70;99.90;;;;;;5012380;28;20121;-87
2021/07/13 09:22:41;;;;;;;6.25;4.00;;;19.50;99.90;;;;;;5014764;28;20171;-87
2021/07/13 09:25:30;;;;;;;4.68;4.10;;;19.10;1.00;;;;;;5016130;28;20018;-94
2021/07/13 09:28:22;;;;;;;4.65;4.20;;;18.70;1.00;;;;;;5010416;28;20029;-94
2021/07/13 09:30:56;;;;;;;4.78;4.25;;;18.50;1.00;;;;;;5009703;28;20418;-93
2021/07/13 09:33:27;;;;;;;6.45;4.68;;;18.60;1.00;;;;;;5012790;28;20109;-96
2021/07/13 09:36:09;;;;;;;8.88;4.32;;;18.50;1.00;;;;;;5011395;28;20053;-93
2021/07/13 09:38:50;;;;;;;4.97;4.55;;;18.70;1.00;;;;;;5009739;28;20037;-94
2021/07/13 09:41:21;;;;;;;4.80;4.30;;;18.50;1.00;;;;;;5012036;28;20030;-88
2021/07/13 09:44:04;;;;;;;3.95;3.50;;;18.40;1.00;;;;;;5028317;28;20124;-87
2021/07/13 09:46:55;;;;;;;6.40;4.70;;;18.60;1.00;;;;;;5011360;28;20034;-88
2021/07/13 09:49:23;;;;;;;5.72;4.82;;;18.50;1.00;;;;;;5008114;28;20045;-86
2021/07/13 09:52:03;;;;;;;6.00;4.43;;;18.50;1.00;;;;;;5012847;28;20029;-87
2021/07/13 09:54:46;;;;;;;5.88;4.78;;;18.70;1.00;;;;;;5010928;28;20468;-87
2021/07/13 09:57:16;;;;;;;6.15;4.75;;;18.70;1.00;;;;;;5012433;28;20034;-88
2021/07/13 09:59:47;;;;;;;5.25;4.68;;;18.60;1.00;;;;;;5010775;28;20467;-87
2021/07/13 10:02:16;;;;;;;5.50;4.20;;;18.90;1.00;;;;;;5010112;28;20022;-87
2021/07/13 10:04:43;;;;;;;7.22;4.38;;;18.80;1.00;;;;;;5009211;28;20478;-87
2021/07/13 10:07:17;;;;;;;7.50;4.43;;;19.10;1.00;;;;;;5009258;28;20044;-87
2021/07/13 10:09:44;;;;;;;5.40;3.83;;;19.10;1.00;;;;;;5010621;28;20026;-87
2021/07/13 10:12:15;;;;;;;5.78;4.20;;;19.10;1.00;;;;;;5008822;28;20428;-86
2021/07/13 10:14:42;;;;;;;4.20;3.80;;;19.20;1.00;;;;;;5009783;28;20073;-87
2021/07/13 10:17:09;;;;;;;4.00;2.92;;;19.80;1.00;;;;;;5010552;28;20038;-96
2021/07/13 10:19:39;;;;;;;4.50;3.45;;;20.30;99.90;;;;;;5012790;28;20029;-93
2021/07/13 10:22:05;;;;;;;4.05;2.92;;;20.80;99.90;;;;;;5015348;28;20064;-92
2021/07/13 10:24:33;;;;;;;3.28;2.88;;;21.10;99.90;;;;;;5016885;28;20494;-92
2021/07/13 10:26:59;;;;;;;3.17;2.35;;;22.20;99.90;;;;;;5016327;28;20029;-92
2021/07/13 10:29:34;;;;;;;2.70;2.30;;;22.50;99.90;;;;;;5013648;28;20033;-94
2021/07/13 10:32:06;;;;;;;2.58;2.10;;;22.80;99.90;;;;;;5040866;28;20061;-93
2021/07/13 10:35:14;;;;;;;4.13;2.10;;;22.80;99.90;;;;;;5025572;28;20391;-94
2021/07/13 10:37:41;;;;;;;2.20;2.00;;;22.10;99.90;;;;;;5021551;28;20045;-89
2021/07/13 10:40:14;;;;;;;1.85;1.75;;;21.90;99.90;;;;;;5023214;28;20036;-88
2021/07/13 10:42:45;;;;;;;7.10;2.10;;;21.30;99.90;;;;;;5009824;28;20490;-88
2021/07/13 10:45:27;;;;;;;3.88;2.30;;;21.30;99.90;;;;;;5010519;28;20108;-87
2021/07/13 10:48:05;;;;;;;3.13;1.88;;;22.10;99.90;;;;;;5007125;28;20045;-87
2021/07/13 10:50:30;;;;;;;3.50;2.00;;;22.80;99.90;;;;;;5009269;28;20127;-88
2021/07/13 10:53:16;;;;;;;5.15;2.05;;;22.70;99.90;;;;;;5009383;28;20080;-91
2021/07/13 10:56:00;;;;;;;2.13;1.80;;;22.90;99.90;;;;;;5012114;28;20041;-90
2021/07/13 10:58:28;;;;;;;2.20;2.00;;;23.20;99.90;;;;;;5009523;28;20041;-87
2021/07/13 11:00:54;;;;;;;3.03;2.05;;;22.80;99.90;;;;;;5009705;28;20490;-84
2021/07/13 11:03:37;;;;;;;2.78;2.10;;;22.40;99.90;;;;;;5010509;28;20033;-83
2021/07/13 11:06:18;;;;;;;3.13;2.63;;;22.40;99.90;;;;;;5008439;28;20561;-81
2021/07/13 11:08:47;;;;;;;2.95;2.33;;;21.60;99.90;;;;;;5010305;28;20537;-82
2021/07/13 11:11:16;;;;;;;5.07;2.58;;;20.10;99.90;;;;;;5009562;28;20091;-84
2021/07/13 11:13:46;;;;;;;3.17;2.70;;;19.50;99.90;;;;;;5008611;28;20510;-85
2021/07/13 11:16:13;;;;;;;3.22;2.92;;;19.20;99.90;;;;;;5010339;28;20046;-83
2021/07/13 11:18:40;;;;;;;4.20;3.00;;;19.50;99.90;;;;;;5012594;28;20132;-85
2021/07/13 11:21:16;;;;;;;4.05;2.67;;;19.60;99.90;;;;;;5008388;28;20038;-86
2021/07/13 11:23:43;;;;;;;2.70;2.50;;;19.80;99.90;;;;;;5010496;28;20026;-85
2021/07/13 11:26:12;;;;;;;3.75;3.03;;;19.60;99.90;;;;;;5014079;28;20639;-84
2021/07/13 11:28:38;;;;;;;3.30;3.00;;;19.60;99.90;;;;;;5013760;28;20478;-83
2021/07/13 11:31:05;;;;;;;2.95;2.70;;;19.30;99.90;;;;;;5014582;28;20042;-87
2021/07/13 11:33:31;;;;;;;4.97;2.80;;;19.20;99.90;;;;;;5013310;28;20386;-83
2021/07/13 11:36:03;;;;;;;2.53;2.33;;;19.50;99.90;;;;;;5013566;28;20034;-84
2021/07/13 11:38:32;;;;;;;4.65;2.30;;;19.60;99.90;;;;;;5013432;28;20042;-83
2021/07/13 11:41:15;;;;;;;2.30;1.90;;;19.50;99.90;;;;;;5015070;28;20022;-86
2021/07/13 11:43:42;;;;;;;2.13;1.88;;;19.70;99.90;;;;;;5014434;28;20037;-86
2021/07/13 11:46:17;;;;;;;2.78;1.67;;;19.90;99.90;;;;;;5014862;28;20559;-84
2021/07/13 11:48:57;;;;;;;1.90;1.80;;;20.30;99.90;;;;;;5012394;28;20032;-87
2021/07/13 11:51:34;;;;;;;2.25;1.90;;;21.10;99.90;;;;;;5010750;28;20026;-87
2021/07/13 11:54:04;;;;;;;2.83;1.88;;;21.80;99.90;;;;;;5013579;28;20529;-86
2021/07/13 11:56:31;;;;;;;2.83;1.90;;;21.60;99.90;;;;;;5010173;28;20045;-89
2021/07/13 11:58:58;;;;;;;2.55;1.83;;;22.30;99.90;;;;;;5013379;28;20033;-86
2021/07/13 12:01:26;;;;;;;2.17;1.98;;;22.50;99.90;;;;;;5013676;28;20056;-82
2021/07/13 12:03:53;;;;;;;2.10;1.90;;;23.20;99.90;;;;;;5012104;28;20026;-85
2021/07/13 12:06:22;;;;;;;2.10;1.90;;;23.00;99.90;;;;;;5015481;28;20033;-83
2021/07/13 12:08:59;;;;;;;2.42;2.22;;;21.80;99.90;;;;;;5014535;28;20040;-87
2021/07/13 12:11:31;;;;;;;2.35;2.15;;;21.20;99.90;;;;;;5009064;28;20076;-90
2021/07/13 12:14:00;;;;;;;3.22;2.30;;;20.70;99.90;;;;;;5013281;28;20026;-87
2021/07/13 12:16:34;;;;;;;2.55;1.85;;;20.80;99.90;;;;;;5018936;28;20053;-83
2021/07/13 12:19:11;;;;;;;3.55;2.28;;;21.20;99.90;;;;;;5018502;28;20560;-84
2021/07/13 12:21:57;;;;;;;4.75;2.15;;;21.20;99.90;;;;;;5016409;28;20460;-86
2021/07/13 12:24:29;;;;;;;3.42;2.50;;;21.20;99.90;;;;;;5009746;28;20033;-86
2021/07/13 12:26:57;;;;;;;2.85;2.10;;;21.60;99.90;;;;;;5017219;28;20485;-87
2021/07/13 12:29:32;;;;;;;2.20;1.95;;;21.80;99.90;;;;;;5014441;28;20029;-87
2021/07/13 12:31:59;;;;;;;2.13;1.88;;;22.10;99.90;;;;;;5024766;28;20064;-87
2021/07/13 12:34:29;;;;;;;1.85;1.60;;;24.80;99.90;;;;;;5016737;28;20034;-86
2021/07/13 12:37:10;;;;;;;2.50;2.00;;;25.90;99.90;;;;;;5015622;28;20056;-87
2021/07/13 12:39:41;;;;;;;1.80;1.70;;;28.90;99.90;;;;;;5018288;28;20037;-87
2021/07/13 12:42:20;;;;;;;2.20;1.38;;;31.90;99.90;;;;;;5017974;28;20014;-87
2021/07/13 12:44:48;;;;;;;2.08;1.40;;;31.40;99.90;;;;;;5015368;28;20041;-86
2021/07/13 12:47:21;;;;;;;3.40;1.50;;;32.10;99.90;;;;;;5016017;28;20033;-85
2021/07/13 12:50:10;;;;;;;1.30;1.20;;;32.00;99.90;;;;;;5017446;28;20061;-86
2021/07/13 12:52:40;;;;;;;1.98;1.40;;;29.90;99.90;;;;;;5013300;28;20112;-86
2021/07/13 12:55:12;;;;;;;2.70;1.63;;;30.20;99.90;;;;;;5014518;28;20026;-86
2021/07/13 12:57:39;;;;;;;2.60;2.40;;;31.40;99.90;;;;;;5017463;28;20033;-87
2021/07/13 13:00:07;;;;;;;1.65;1.55;;;30.70;99.90;;;;;;5017702;28;20021;-86
2021/07/13 13:02:33;;;;;;;2.72;1.60;;;30.20;99.90;;;;;;5013623;28;20030;-87